Остафьево

Карта отелей и гостиниц, располагающихся рядом с аэропортом Остафьево :

Остафьево
Москва
Москва 55° 30' 27.8388" N, 37° 30' 22.86" E
Код аэродрома ИКАО
UUMO
Код аэродрома RU
УУМО
Координаты
N55.50773° E037.50635°
Превышение над уровнем моря
172
Основная полоса
08/26
Курс магнитный
074,2/254,2
Длина основной ВПП
2050
Ширина основной ВПП
48
Покрытие основной ВПП
Твёрдое (железобетон)
Освещение ВПП
Постоянное
Тип: 
Аэродром
Класс аэродрома: 
Международный
Принадлежность: 
МО
Статус: 
Действующий
Сайт: 
ostafyevo-airport.ru
E-mail аэродрома: 
airport@gazavia.gazprom.ru
Страна: 
Россия
Регион: 
Москва
Город: 
Москва
Дополнительная информация: 
Совместного базирования (МО РФ, ООО Авиапредприятие "Газпром авиа", ООО "Шар инк ЛТК"). Позиционируется как международный бизнес-аэропорт. Нкр.=(150/400)м. ДПРМ: 625-"НВ/ПС". БПРМ: 305-"Н/П". Военный индекс: XUMO / ЬУМО. Старшим авиационным начальником аэродрома совместного базирования «Остафьево» является командир 7050-й гвардейской авиационной группы (в/ч 49324-3) из состава авиационной базы Северного флота морской авиации ВМФ России (г. Североморск).
Погода: 

Авиационная погода в Москве - Остафьево

Погода METAR: 
UUMO 171830Z VRB01MPS CAVOK 01/01 Q1021 R07/090060 NOSIG RMK QFE751/1001
Время наблюдения
2021-09-17T18:30:00Z
Температура C
1.0
Точка росы
1.0
Направление ветра
0
Скорость ветра (узлы)
2
Метео видимость
6.21
Явления погоды
Условия полета
VFR
Аэропорт подробнее: 

Найти трансфер

С помощью этой формы Вы можете найти трансфер из аэропорта Остафьево в город, аэропорт или вокзал:

Карта места

Javascript is required to view this map.

Погода в аэропортах:

Авиационная погода в Брянске

Регион: 
Погода METAR: 
UUBP 171830Z AUTO 07005MPS 9999 -DZ 07/07 Q1015 RMK QFE744/0992
Время наблюдения
2021-09-17T18:30:00Z
Температура C
7.0
Точка росы
7.0
Направление ветра
70
Скорость ветра (узлы)
10
Метео видимость
6.21
Явления погоды
-DZ
Условия полета
Аэропорт подробнее: 

Авиационная погода в Закаталы

Регион: 
Погода METAR: 
UBBY 171900Z 12006KT 9999 VCTS SCT030CB OVC070 18/18 Q1019 R33/////// NOSIG RMK MT OBSC
Время наблюдения
2021-09-17T19:00:00Z
Температура C
18.0
Точка росы
18.0
Направление ветра
120
Скорость ветра (узлы)
6
Метео видимость
6.21
Явления погоды
VCTS
Условия полета
VFR

Авиационная погода в Якутске

Регион: 
Погода METAR: 
UEEE 171830Z 30004MPS 9999 -SHRA SCT009 BKN018CB 07/07 Q0997 R23L/290155 NOSIG RMK QFE739
Время наблюдения
2021-09-17T18:30:00Z
Температура C
7.0
Точка росы
7.0
Направление ветра
300
Скорость ветра (узлы)
8
Метео видимость
6.21
Явления погоды
-SHRA
Условия полета
MVFR
Аэропорт подробнее: 

Авиационная погода в Перми

Регион: 
Погода METAR: 
USPP 171830Z 30002MPS 280V340 9999 -RA BKN024 05/05 Q1009 R21/290250 TEMPO 2200 -RA BKN011 RMK QFE746
Время наблюдения
2021-09-17T18:30:00Z
Температура C
5.0
Точка росы
5.0
Направление ветра
300
Скорость ветра (узлы)
4
Метео видимость
6.21
Явления погоды
-RA
Условия полета
MVFR
Аэропорт подробнее: